createdAt,value
2023-03-01T00:01:03.000Z,0
2023-03-01T00:02:19.000Z,0
2023-03-01T00:03:35.000Z,0
2023-03-01T00:04:51.000Z,0
2023-03-01T00:06:07.000Z,0
2023-03-01T00:07:24.000Z,0
2023-03-01T00:08:40.000Z,0
2023-03-01T00:09:56.000Z,0
2023-03-01T00:11:12.000Z,0
2023-03-01T00:12:28.000Z,0
2023-03-01T00:13:44.000Z,0
2023-03-01T00:15:00.000Z,0
2023-03-01T00:16:16.000Z,0
2023-03-01T00:17:32.000Z,0
2023-03-01T00:18:48.000Z,0
2023-03-01T00:20:04.000Z,0
2023-03-01T00:21:21.121Z,0
2023-03-01T00:22:37.000Z,0
2023-03-01T00:23:53.000Z,0
2023-03-01T00:25:09.000Z,0
2023-03-01T00:26:25.000Z,0
2023-03-01T00:27:42.000Z,0
2023-03-01T00:28:58.000Z,0
2023-03-01T00:30:14.000Z,0
2023-03-01T00:31:29.000Z,0
2023-03-01T00:32:45.000Z,0
2023-03-01T00:34:02.000Z,0
2023-03-01T00:35:18.000Z,0
2023-03-01T00:36:34.000Z,0
2023-03-01T00:37:50.000Z,0
2023-03-01T00:39:06.000Z,0
2023-03-01T00:40:23.000Z,0
2023-03-01T00:41:39.000Z,0
2023-03-01T00:42:55.000Z,0
2023-03-01T00:44:11.000Z,0
2023-03-01T00:45:27.000Z,0
2023-03-01T00:46:44.000Z,0
2023-03-01T00:47:59.000Z,0
2023-03-01T00:49:15.000Z,0
2023-03-01T00:50:31.000Z,0
2023-03-01T00:51:47.000Z,0
2023-03-01T00:53:04.000Z,0
2023-03-01T00:54:20.000Z,0
2023-03-01T00:55:36.000Z,0
2023-03-01T00:56:52.000Z,0
2023-03-01T00:58:08.000Z,0
2023-03-01T00:59:25.023Z,0
2023-03-01T01:00:41.000Z,0
2023-03-01T01:01:57.000Z,0
2023-03-01T01:03:13.000Z,0
2023-03-01T01:04:28.000Z,0
2023-03-01T01:05:45.000Z,0
2023-03-01T01:07:01.000Z,0
2023-03-01T01:08:17.000Z,0
2023-03-01T01:09:33.000Z,0
2023-03-01T01:10:49.000Z,0
2023-03-01T01:12:05.990Z,0
2023-03-01T01:13:22.000Z,0
2023-03-01T01:14:38.000Z,0
2023-03-01T01:15:54.000Z,0
2023-03-01T01:17:10.000Z,0
2023-03-01T01:18:27.000Z,0
2023-03-01T01:19:43.000Z,0
2023-03-01T01:20:58.000Z,0
2023-03-01T01:22:14.000Z,0
2023-03-01T01:23:30.000Z,0
2023-03-01T01:24:47.000Z,0
2023-03-01T01:26:03.000Z,0
2023-03-01T01:27:19.000Z,0
2023-03-01T01:28:35.000Z,0
2023-03-01T01:29:51.000Z,0
2023-03-01T01:31:08.000Z,0
2023-03-01T01:32:24.000Z,0
2023-03-01T01:33:40.000Z,0
2023-03-01T01:34:56.000Z,0
2023-03-01T01:36:12.000Z,0
2023-03-01T01:37:28.000Z,0
2023-03-01T01:38:44.000Z,0
2023-03-01T01:40:00.000Z,0
2023-03-01T01:41:16.000Z,0
2023-03-01T01:42:32.000Z,0
2023-03-01T01:43:48.000Z,0
2023-03-01T01:45:04.000Z,0
2023-03-01T01:46:20.000Z,0
2023-03-01T01:47:36.000Z,0
2023-03-01T01:48:52.000Z,0
2023-03-01T01:50:08.930Z,0
2023-03-01T01:51:25.000Z,0
2023-03-01T01:52:41.000Z,0
2023-03-01T01:53:57.000Z,0
2023-03-01T01:55:13.000Z,0
2023-03-01T01:56:29.000Z,0
2023-03-01T01:57:46.000Z,0
2023-03-01T01:59:02.000Z,0
2023-03-01T02:00:18.000Z,0
2023-03-01T02:01:33.000Z,0
2023-03-01T02:02:49.000Z,0
2023-03-01T02:04:06.000Z,0
2023-03-01T02:05:22.000Z,0
2023-03-01T02:06:38.000Z,0
2023-03-01T02:07:54.000Z,0
2023-03-01T02:09:10.000Z,0
2023-03-01T02:10:27.000Z,0
2023-03-01T02:11:43.000Z,0
2023-03-01T02:12:59.000Z,0
2023-03-01T02:14:15.000Z,0
2023-03-01T02:15:31.000Z,0
2023-03-01T02:16:48.000Z,0
2023-03-01T02:18:03.000Z,0
2023-03-01T02:19:19.000Z,0
2023-03-01T02:20:35.000Z,0
2023-03-01T02:21:51.000Z,0
2023-03-01T02:23:08.000Z,0
2023-03-01T02:24:24.000Z,0
2023-03-01T02:25:40.436Z,0
2023-03-01T02:26:56.000Z,0
2023-03-01T02:28:12.825Z,0
2023-03-01T02:29:29.000Z,0
2023-03-01T02:30:45.000Z,0
2023-03-01T02:32:01.000Z,0
2023-03-01T02:33:17.000Z,0
2023-03-01T02:34:32.000Z,0
2023-03-01T02:35:49.000Z,0
2023-03-01T02:37:05.000Z,0
2023-03-01T02:38:21.000Z,0
2023-03-01T02:39:37.000Z,0
2023-03-01T02:40:53.000Z,0
2023-03-01T02:42:10.000Z,0
2023-03-01T02:43:26.000Z,0
2023-03-01T02:44:42.000Z,0
2023-03-01T02:45:58.000Z,0
2023-03-01T02:47:14.000Z,0
2023-03-01T02:48:31.000Z,0
2023-03-01T02:49:47.000Z,0
2023-03-01T02:51:02.000Z,0
2023-03-01T02:52:18.000Z,0
2023-03-01T02:53:34.000Z,0
2023-03-01T02:54:51.000Z,0
2023-03-01T02:56:07.000Z,0
2023-03-01T02:57:23.000Z,0
2023-03-01T02:58:39.000Z,0
2023-03-01T02:59:55.000Z,0
2023-03-01T03:01:12.000Z,0
2023-03-01T03:02:28.000Z,0
2023-03-01T03:03:44.000Z,0
2023-03-01T03:05:00.000Z,0
2023-03-01T03:06:16.733Z,0
2023-03-01T03:07:32.000Z,0
2023-03-01T03:08:48.000Z,0
2023-03-01T03:10:04.000Z,0
2023-03-01T03:11:20.000Z,0
2023-03-01T03:12:36.000Z,0
2023-03-01T03:13:52.000Z,0
2023-03-01T03:15:09.000Z,0
2023-03-01T03:16:25.000Z,0
2023-03-01T03:17:41.000Z,0
2023-03-01T03:18:57.000Z,0
2023-03-01T03:20:13.000Z,0
2023-03-01T03:21:30.000Z,0
2023-03-01T03:22:46.000Z,0
2023-03-01T03:24:01.000Z,0
2023-03-01T03:25:17.000Z,0
2023-03-01T03:26:33.000Z,0
2023-03-01T03:27:50.000Z,0
2023-03-01T03:29:06.000Z,0
2023-03-01T03:30:22.000Z,0
2023-03-01T03:31:38.000Z,0
2023-03-01T03:32:54.000Z,0
2023-03-01T03:34:11.079Z,0
2023-03-01T03:35:27.000Z,0
2023-03-01T03:36:43.000Z,0
2023-03-01T03:37:59.000Z,0
2023-03-01T03:39:15.000Z,0
2023-03-01T03:40:31.000Z,0
2023-03-01T03:41:47.000Z,0
2023-03-01T03:43:03.000Z,0
2023-03-01T03:44:19.649Z,0
2023-03-01T03:45:35.000Z,0
2023-03-01T03:46:52.000Z,0
2023-03-01T03:48:08.000Z,0
2023-03-01T03:49:24.000Z,0
2023-03-01T03:50:40.000Z,0
2023-03-01T03:51:56.000Z,0
2023-03-01T03:53:13.000Z,0
2023-03-01T03:54:29.000Z,0
2023-03-01T03:55:45.000Z,0
2023-03-01T03:57:00.630Z,0
2023-03-01T03:58:16.000Z,0
2023-03-01T03:59:33.000Z,0
2023-03-01T04:00:49.000Z,0
2023-03-01T04:02:05.000Z,0
2023-03-01T04:03:21.000Z,0
2023-03-01T04:04:37.000Z,0
2023-03-01T04:05:54.000Z,0
2023-03-01T04:07:10.000Z,0
2023-03-01T04:08:26.000Z,0
2023-03-01T04:09:42.000Z,0
2023-03-01T04:10:58.000Z,0
2023-03-01T04:12:14.976Z,0
2023-03-01T04:13:30.000Z,0
2023-03-01T04:14:46.000Z,0
2023-03-01T04:16:02.000Z,0
2023-03-01T04:17:18.000Z,0
2023-03-01T04:18:35.000Z,0
2023-03-01T04:19:51.000Z,0
2023-03-01T04:21:07.000Z,0
2023-03-01T04:22:23.555Z,0
2023-03-01T04:23:39.000Z,0
2023-03-01T04:24:56.000Z,0
2023-03-01T04:26:12.000Z,0
2023-03-01T04:27:28.000Z,0
2023-03-01T04:28:44.000Z,0
2023-03-01T04:29:59.000Z,0
2023-03-01T04:31:16.000Z,0
2023-03-01T04:32:32.000Z,0
2023-03-01T04:33:48.000Z,0
2023-03-01T04:35:04.548Z,0
2023-03-01T04:36:20.743Z,0
2023-03-01T04:37:36.000Z,0
2023-03-01T04:38:53.000Z,0
2023-03-01T04:40:09.000Z,0
2023-03-01T04:41:25.000Z,0
2023-03-01T04:42:41.000Z,0
2023-03-01T04:43:57.000Z,0
2023-03-01T04:45:14.000Z,0
2023-03-01T04:46:30.000Z,0
2023-03-01T04:47:45.000Z,0
2023-03-01T04:49:01.000Z,0
2023-03-01T04:50:17.000Z,0
2023-03-01T04:51:34.000Z,0
2023-03-01T04:52:50.000Z,0
2023-03-01T04:54:06.000Z,0
2023-03-01T04:55:22.000Z,0
2023-03-01T04:56:38.000Z,0
2023-03-01T04:57:55.000Z,0
2023-03-01T04:59:11.000Z,0
2023-03-01T05:00:27.000Z,0
2023-03-01T05:01:43.000Z,0
2023-03-01T05:02:59.000Z,0
2023-03-01T05:04:15.000Z,0
2023-03-01T05:05:31.000Z,0
2023-03-01T05:06:47.000Z,0
2023-03-01T05:08:03.000Z,0
2023-03-01T05:09:19.000Z,0
2023-03-01T05:10:36.000Z,0
2023-03-01T05:11:52.000Z,0
2023-03-01T05:13:08.441Z,0
2023-03-01T05:14:24.000Z,0
2023-03-01T05:15:40.000Z,0
2023-03-01T05:16:57.000Z,0
2023-03-01T05:18:13.000Z,0
2023-03-01T05:19:29.000Z,0
2023-03-01T05:20:44.000Z,0
2023-03-01T05:22:00.000Z,0
2023-03-01T05:23:17.000Z,0
2023-03-01T05:24:33.000Z,0
2023-03-01T05:25:49.000Z,0
2023-03-01T05:27:05.000Z,0
2023-03-01T05:28:21.000Z,0
2023-03-01T05:29:38.000Z,0
2023-03-01T05:30:54.000Z,0
2023-03-01T05:32:10.000Z,0
2023-03-01T05:33:26.000Z,0
2023-03-01T05:34:42.000Z,0
2023-03-01T05:35:59.000Z,0
2023-03-01T05:37:14.000Z,0
2023-03-01T05:38:30.000Z,4
2023-03-01T05:39:46.000Z,4
2023-03-01T05:41:02.000Z,0
2023-03-01T05:42:19.000Z,4
2023-03-01T05:43:35.000Z,4
2023-03-01T05:44:51.000Z,4
2023-03-01T05:46:07.000Z,8
2023-03-01T05:47:23.000Z,8
2023-03-01T05:48:40.000Z,8
2023-03-01T05:49:56.000Z,12
2023-03-01T05:51:12.000Z,12
2023-03-01T05:52:28.000Z,16
2023-03-01T05:53:43.772Z,20
2023-03-01T05:55:00.000Z,28
2023-03-01T05:56:16.000Z,32
2023-03-01T05:57:32.000Z,44
2023-03-01T05:58:48.000Z,48
2023-03-01T06:00:03.000Z,64
2023-03-01T06:01:20.000Z,76
2023-03-01T06:02:36.000Z,92
2023-03-01T06:03:52.368Z,108
2023-03-01T06:05:08.000Z,128
2023-03-01T06:06:24.000Z,148
2023-03-01T06:07:41.000Z,176
2023-03-01T06:08:57.136Z,200
2023-03-01T06:10:13.000Z,232
2023-03-01T06:11:29.000Z,268
2023-03-01T06:12:45.000Z,304
2023-03-01T06:14:02.000Z,336
2023-03-01T06:15:18.000Z,384
2023-03-01T06:16:33.000Z,428
2023-03-01T06:17:49.000Z,472
2023-03-01T06:19:05.000Z,520
2023-03-01T06:20:21.000Z,576
2023-03-01T06:21:38.000Z,632
2023-03-01T06:22:54.000Z,696
2023-03-01T06:24:10.000Z,756
2023-03-01T06:25:26.000Z,820
2023-03-01T06:26:42.000Z,888
2023-03-01T06:27:59.000Z,956
2023-03-01T06:29:15.291Z,1028
2023-03-01T06:30:31.484Z,1104
2023-03-01T06:31:47.000Z,1180
2023-03-01T06:33:02.000Z,1256
2023-03-01T06:34:19.000Z,1340
2023-03-01T06:35:35.000Z,1424
2023-03-01T06:36:51.000Z,1508
2023-03-01T06:38:07.000Z,1592
2023-03-01T06:39:23.000Z,1680
2023-03-01T06:40:40.000Z,1772
2023-03-01T06:41:56.265Z,1856
2023-03-01T06:43:12.000Z,1952
2023-03-01T06:44:28.000Z,2044
2023-03-01T06:45:44.000Z,2140
2023-03-01T06:47:01.000Z,2240
2023-03-01T06:48:17.000Z,2340
2023-03-01T06:49:32.000Z,2440
2023-03-01T06:50:48.000Z,2548
2023-03-01T06:52:04.000Z,2648
2023-03-01T06:53:21.000Z,2756
2023-03-01T06:54:37.253Z,2860
2023-03-01T06:55:53.000Z,2964
2023-03-01T06:57:09.000Z,3060
2023-03-01T06:58:25.000Z,3156
2023-03-01T06:59:42.030Z,3248
2023-03-01T07:00:58.000Z,3344
2023-03-01T07:02:14.000Z,3444
2023-03-01T07:03:30.000Z,3552
2023-03-01T07:04:46.000Z,3652
2023-03-01T07:06:02.000Z,3756
2023-03-01T07:07:18.211Z,3860
2023-03-01T07:08:34.000Z,3956
2023-03-01T07:09:50.000Z,4048
2023-03-01T07:11:06.000Z,4124
2023-03-01T07:12:23.000Z,4212
2023-03-01T07:13:39.000Z,4296
2023-03-01T07:14:55.000Z,4368
2023-03-01T07:16:11.000Z,4456
2023-03-01T07:17:27.000Z,4580
2023-03-01T07:18:44.000Z,4692
2023-03-01T07:20:00.000Z,4828
2023-03-01T07:21:16.000Z,4976
2023-03-01T07:22:31.000Z,5120
2023-03-01T07:23:47.000Z,5304
2023-03-01T07:25:04.000Z,5548
2023-03-01T07:26:20.000Z,17248
2023-03-01T07:27:36.000Z,41856
2023-03-01T07:28:52.000Z,61696
2023-03-01T07:30:08.000Z,48256
2023-03-01T07:31:25.000Z,22272
2023-03-01T07:32:41.146Z,35936
2023-03-01T07:33:57.000Z,58752
2023-03-01T07:35:13.544Z,64096
2023-03-01T07:36:29.000Z,67904
2023-03-01T07:37:46.000Z,70336
2023-03-01T07:39:01.000Z,70560
2023-03-01T07:40:17.000Z,71328
2023-03-01T07:41:33.000Z,72512
2023-03-01T07:42:49.000Z,73312
2023-03-01T07:44:06.000Z,73536
2023-03-01T07:45:22.131Z,75360
2023-03-01T07:46:38.000Z,74560
2023-03-01T07:47:54.000Z,75488
2023-03-01T07:49:10.000Z,75648
2023-03-01T07:50:26.000Z,74752
2023-03-01T07:51:43.000Z,74496
2023-03-01T07:52:59.000Z,75168
2023-03-01T07:54:15.000Z,77536
2023-03-01T07:55:30.000Z,79360
2023-03-01T07:56:46.000Z,76608
2023-03-01T07:58:03.000Z,73888
2023-03-01T07:59:19.000Z,72608
2023-03-01T08:00:35.000Z,75232
2023-03-01T08:01:51.000Z,78624
2023-03-01T08:03:07.000Z,79424
2023-03-01T08:04:24.000Z,79648
2023-03-01T08:05:40.000Z,79456
2023-03-01T08:06:56.000Z,81792
2023-03-01T08:08:12.000Z,83360
2023-03-01T08:09:28.000Z,85088
2023-03-01T08:10:45.049Z,83712
2023-03-01T08:12:00.000Z,84672
2023-03-01T08:13:16.000Z,84032
2023-03-01T08:14:32.000Z,85184
2023-03-01T08:15:48.000Z,85824
2023-03-01T08:17:05.000Z,86656
2023-03-01T08:18:21.000Z,85824
2023-03-01T08:19:37.000Z,86592
2023-03-01T08:20:53.000Z,84608
2023-03-01T08:22:09.000Z,81984
2023-03-01T08:23:26.000Z,81600
2023-03-01T08:24:42.000Z,84096
2023-03-01T08:25:58.000Z,85568
2023-03-01T08:27:14.000Z,84352
2023-03-01T08:28:29.000Z,82720
2023-03-01T08:29:46.000Z,85248
2023-03-01T08:31:02.000Z,85824
2023-03-01T08:32:18.000Z,85760
2023-03-01T08:33:34.000Z,88544
2023-03-01T08:34:50.000Z,88512
2023-03-01T08:36:07.000Z,87424
2023-03-01T08:37:23.000Z,87136
2023-03-01T08:38:39.000Z,88384
2023-03-01T08:39:55.621Z,86528
2023-03-01T08:41:11.000Z,87552
2023-03-01T08:42:28.000Z,86592
2023-03-01T08:43:44.000Z,84352
2023-03-01T08:44:59.000Z,87136
2023-03-01T08:46:15.000Z,89728
2023-03-01T08:47:31.000Z,86016
2023-03-01T08:48:48.011Z,83776
2023-03-01T08:50:04.000Z,77856
2023-03-01T08:51:20.000Z,73760
2023-03-01T08:52:36.000Z,75136
2023-03-01T08:53:52.000Z,81920
2023-03-01T08:55:09.000Z,87456
2023-03-01T08:56:25.000Z,87264
2023-03-01T08:57:41.000Z,87648
2023-03-01T08:58:57.000Z,84256
2023-03-01T09:00:13.000Z,83776
2023-03-01T09:01:28.981Z,84384
2023-03-01T09:02:45.000Z,85824
2023-03-01T09:04:01.000Z,85504
2023-03-01T09:05:17.000Z,85152
2023-03-01T09:06:33.000Z,81120
2023-03-01T09:07:50.000Z,76224
2023-03-01T09:09:06.000Z,75840
2023-03-01T09:10:22.000Z,79104
2023-03-01T09:11:38.000Z,82592
2023-03-01T09:12:54.000Z,82592
2023-03-01T09:14:11.000Z,71360
2023-03-01T09:15:27.000Z,49440
2023-03-01T09:16:43.000Z,37600
2023-03-01T09:17:58.000Z,36256
2023-03-01T09:19:14.000Z,36288
2023-03-01T09:20:31.000Z,36704
2023-03-01T09:21:47.000Z,36928
2023-03-01T09:23:03.000Z,37088
2023-03-01T09:24:19.000Z,37568
2023-03-01T09:25:35.000Z,38656
2023-03-01T09:26:52.000Z,39072
2023-03-01T09:28:08.000Z,39296
2023-03-01T09:29:24.000Z,39744
2023-03-01T09:30:40.000Z,40576
2023-03-01T09:31:56.000Z,41120
2023-03-01T09:33:12.000Z,42176
2023-03-01T09:34:28.000Z,42144
2023-03-01T09:35:44.000Z,42560
2023-03-01T09:37:00.000Z,42816
2023-03-01T09:38:16.000Z,43552
2023-03-01T09:39:32.911Z,43232
2023-03-01T09:40:49.000Z,43744
2023-03-01T09:42:05.000Z,43840
2023-03-01T09:43:21.000Z,43776
2023-03-01T09:44:37.000Z,44000
2023-03-01T09:45:53.000Z,43488
2023-03-01T09:47:10.000Z,43808
2023-03-01T09:48:26.000Z,43488
2023-03-01T09:49:42.000Z,43232
2023-03-01T09:50:57.683Z,42560
2023-03-01T09:52:13.000Z,42688
2023-03-01T09:53:30.000Z,41696
2023-03-01T09:54:46.000Z,41312
2023-03-01T09:56:02.000Z,40864
2023-03-01T09:57:18.000Z,40800
2023-03-01T09:58:34.000Z,41344
2023-03-01T09:59:51.000Z,41728
2023-03-01T10:01:07.000Z,42400
2023-03-01T10:02:23.000Z,43968
2023-03-01T10:03:39.000Z,57056
2023-03-01T10:04:55.000Z,77760
2023-03-01T10:06:12.000Z,82560
2023-03-01T10:07:27.000Z,74880
2023-03-01T10:08:43.000Z,59776
2023-03-01T10:09:59.000Z,61984
2023-03-01T10:11:15.000Z,56128
2023-03-01T10:12:32.000Z,49536
2023-03-01T10:13:48.000Z,54016
2023-03-01T10:15:03.000Z,55200
2023-03-01T10:16:19.000Z,47008
2023-03-01T10:17:35.788Z,41408
2023-03-01T10:18:52.000Z,44832
2023-03-01T10:20:08.000Z,44032
2023-03-01T10:21:24.000Z,27008
2023-03-01T10:22:40.000Z,13832
2023-03-01T10:23:56.000Z,12588
2023-03-01T10:25:13.000Z,12272
2023-03-01T10:26:29.000Z,12064
2023-03-01T10:27:45.000Z,11856
2023-03-01T10:29:01.000Z,11756
2023-03-01T10:30:17.000Z,11128
2023-03-01T10:31:33.000Z,11504
2023-03-01T10:32:49.000Z,11360
2023-03-01T10:34:05.334Z,11288
2023-03-01T10:35:21.000Z,11212
2023-03-01T10:36:37.000Z,11128
2023-03-01T10:37:53.000Z,11060
2023-03-01T10:39:10.000Z,10900
2023-03-01T10:40:26.000Z,10788
2023-03-01T10:41:42.000Z,10596
2023-03-01T10:42:58.000Z,10496
2023-03-01T10:44:14.000Z,10360
2023-03-01T10:45:31.000Z,10248
2023-03-01T10:46:47.000Z,10116
2023-03-01T10:48:02.000Z,9980
2023-03-01T10:49:18.000Z,9840
2023-03-01T10:50:34.000Z,9728
2023-03-01T10:51:51.000Z,9596
2023-03-01T10:53:07.000Z,9488
2023-03-01T10:54:23.000Z,9360
2023-03-01T10:55:39.632Z,9212
2023-03-01T10:56:55.000Z,9080
2023-03-01T10:58:12.000Z,8964
2023-03-01T10:59:28.000Z,8860
2023-03-01T11:00:44.000Z,8720
2023-03-01T11:02:00.000Z,8596
2023-03-01T11:03:16.000Z,8484
2023-03-01T11:04:32.000Z,8328
2023-03-01T11:05:48.000Z,8272
2023-03-01T11:07:04.000Z,8212
2023-03-01T11:08:20.589Z,8064
2023-03-01T11:09:36.000Z,7948
2023-03-01T11:10:53.000Z,7824
2023-03-01T11:12:09.000Z,7688
2023-03-01T11:13:25.000Z,7612
2023-03-01T11:14:41.000Z,7500
2023-03-01T11:15:57.000Z,7384
2023-03-01T11:17:14.000Z,7284
2023-03-01T11:18:30.000Z,7192
2023-03-01T11:19:46.000Z,7088
2023-03-01T11:21:01.000Z,6968
2023-03-01T11:22:17.000Z,6848
2023-03-01T11:23:34.000Z,6732
2023-03-01T11:24:50.000Z,6628
2023-03-01T11:26:06.000Z,6524
2023-03-01T11:27:22.000Z,6372
2023-03-01T11:28:38.000Z,6256
2023-03-01T11:29:54.000Z,6184
2023-03-01T11:31:11.000Z,6104
2023-03-01T11:32:27.000Z,6008
2023-03-01T11:33:43.000Z,5920
2023-03-01T11:34:59.000Z,5820
2023-03-01T11:36:15.000Z,5720
2023-03-01T11:37:31.000Z,5636
2023-03-01T11:38:47.000Z,5548
2023-03-01T11:40:03.000Z,5448
2023-03-01T11:41:19.000Z,5364
2023-03-01T11:42:35.000Z,5284
2023-03-01T11:43:52.000Z,5240
2023-03-01T11:45:08.000Z,5172
2023-03-01T11:46:24.000Z,5104
2023-03-01T11:47:40.000Z,5064
2023-03-01T11:48:56.000Z,5016
2023-03-01T11:50:13.000Z,4956
2023-03-01T11:51:29.000Z,4896
2023-03-01T11:52:45.000Z,4820
2023-03-01T11:54:00.594Z,4748
2023-03-01T11:55:16.000Z,4676
2023-03-01T11:56:33.000Z,4612
2023-03-01T11:57:49.158Z,4564
2023-03-01T11:59:05.356Z,4532
2023-03-01T12:00:21.000Z,4488
2023-03-01T12:01:37.000Z,4436
2023-03-01T12:02:54.000Z,4380
2023-03-01T12:04:10.000Z,4324
2023-03-01T12:05:26.000Z,4256
2023-03-01T12:06:42.000Z,4224
2023-03-01T12:07:58.000Z,4204
2023-03-01T12:09:15.000Z,4164
2023-03-01T12:10:30.000Z,4144
2023-03-01T12:11:46.316Z,4124
2023-03-01T12:13:02.000Z,4096
2023-03-01T12:14:18.693Z,4076
2023-03-01T12:15:34.000Z,4036
2023-03-01T12:16:51.000Z,4008
2023-03-01T12:18:07.000Z,3984
2023-03-01T12:19:23.000Z,3960
2023-03-01T12:20:39.000Z,3944
2023-03-01T12:21:55.000Z,3924
2023-03-01T12:23:12.000Z,3908
2023-03-01T12:24:28.240Z,3888
2023-03-01T12:25:44.000Z,3872
2023-03-01T12:26:59.000Z,3852
2023-03-01T12:28:15.000Z,3824
2023-03-01T12:29:32.043Z,3784
2023-03-01T12:30:48.000Z,3748
2023-03-01T12:32:04.000Z,3720
2023-03-01T12:33:20.000Z,3696
2023-03-01T12:34:36.000Z,3664
2023-03-01T12:35:53.000Z,3632
2023-03-01T12:37:09.188Z,3600
2023-03-01T12:38:25.000Z,3564
2023-03-01T12:39:41.000Z,3540
2023-03-01T12:40:57.000Z,3504
2023-03-01T12:42:14.000Z,3472
2023-03-01T12:43:29.000Z,3432
2023-03-01T12:44:45.000Z,3388
2023-03-01T12:46:01.000Z,3352
2023-03-01T12:47:17.000Z,3316
2023-03-01T12:48:34.000Z,3296
2023-03-01T12:49:50.135Z,3260
2023-03-01T12:51:06.000Z,3232
2023-03-01T12:52:22.000Z,3212
2023-03-01T12:53:38.000Z,3204
2023-03-01T12:54:55.000Z,3192
2023-03-01T12:56:11.000Z,3176
2023-03-01T12:57:27.000Z,3168
2023-03-01T12:58:43.000Z,3156
2023-03-01T12:59:58.000Z,3152
2023-03-01T13:01:15.000Z,3136
2023-03-01T13:02:31.000Z,3116
2023-03-01T13:03:47.000Z,3108
2023-03-01T13:05:03.000Z,3096
2023-03-01T13:06:19.000Z,3084
2023-03-01T13:07:35.000Z,3072
2023-03-01T13:08:52.000Z,3072
2023-03-01T13:10:08.000Z,3056
2023-03-01T13:11:24.000Z,3044
2023-03-01T13:12:40.000Z,3032
2023-03-01T13:13:56.000Z,3020
2023-03-01T13:15:13.037Z,3008
2023-03-01T13:16:28.000Z,3004
2023-03-01T13:17:44.000Z,3000
2023-03-01T13:19:00.000Z,2988
2023-03-01T13:20:16.000Z,2980
2023-03-01T13:21:33.000Z,2968
2023-03-01T13:22:49.000Z,2968
2023-03-01T13:24:05.000Z,2964
2023-03-01T13:25:21.000Z,2952
2023-03-01T13:26:37.000Z,2944
2023-03-01T13:27:53.981Z,2952
2023-03-01T13:29:10.000Z,2952
2023-03-01T13:30:26.000Z,2944
2023-03-01T13:31:42.000Z,2940
2023-03-01T13:32:57.000Z,2932
2023-03-01T13:34:14.000Z,2932
2023-03-01T13:35:30.000Z,2932
2023-03-01T13:36:46.000Z,2928
2023-03-01T13:38:02.000Z,2924
2023-03-01T13:39:18.000Z,2916
2023-03-01T13:40:34.933Z,2920
2023-03-01T13:41:51.000Z,2916
2023-03-01T13:43:07.000Z,2912
2023-03-01T13:44:23.000Z,2908
2023-03-01T13:45:39.000Z,2912
2023-03-01T13:46:56.000Z,2908
2023-03-01T13:48:12.000Z,2468
2023-03-01T13:49:27.000Z,2108
2023-03-01T13:50:43.000Z,2908
2023-03-01T13:51:59.000Z,2904
2023-03-01T13:53:15.886Z,2908
2023-03-01T13:54:32.166Z,2904
2023-03-01T13:55:48.000Z,2900
2023-03-01T13:57:04.000Z,2892
2023-03-01T13:58:20.000Z,2888
2023-03-01T13:59:36.000Z,2884
2023-03-01T14:00:53.000Z,2880
2023-03-01T14:02:09.000Z,2880
2023-03-01T14:03:25.000Z,2864
2023-03-01T14:04:41.000Z,2864
2023-03-01T14:05:56.920Z,2864
2023-03-01T14:07:13.000Z,2868
2023-03-01T14:08:29.000Z,2860
2023-03-01T14:09:45.000Z,2856
2023-03-01T14:11:01.000Z,2848
2023-03-01T14:12:17.000Z,2848
2023-03-01T14:13:34.000Z,2848
2023-03-01T14:14:50.000Z,2840
2023-03-01T14:16:06.000Z,2836
2023-03-01T14:17:22.000Z,2828
2023-03-01T14:18:38.851Z,2832
2023-03-01T14:19:55.000Z,2836
2023-03-01T14:21:11.000Z,2832
2023-03-01T14:22:26.000Z,2828
2023-03-01T14:23:42.000Z,2820
2023-03-01T14:24:58.000Z,2820
2023-03-01T14:26:15.000Z,2812
2023-03-01T14:27:31.000Z,2808
2023-03-01T14:28:47.426Z,2796
2023-03-01T14:30:02.000Z,2796
2023-03-01T14:31:18.825Z,2784
2023-03-01T14:32:35.000Z,2780
2023-03-01T14:33:51.000Z,2780
2023-03-01T14:35:07.000Z,2780
2023-03-01T14:36:23.000Z,2780
2023-03-01T14:37:39.785Z,2772
2023-03-01T14:38:56.000Z,2772
2023-03-01T14:40:12.188Z,2772
2023-03-01T14:41:28.000Z,2772
2023-03-01T14:42:44.000Z,2768
2023-03-01T14:44:00.762Z,2768
2023-03-01T14:45:16.000Z,2772
2023-03-01T14:46:32.000Z,2772
2023-03-01T14:47:48.000Z,2760
2023-03-01T14:49:04.000Z,2744
2023-03-01T14:50:20.000Z,2740
2023-03-01T14:51:36.000Z,2740
2023-03-01T14:52:53.000Z,2736
2023-03-01T14:54:09.000Z,2732
2023-03-01T14:55:25.000Z,2724
2023-03-01T14:56:41.711Z,2724
2023-03-01T14:57:57.000Z,2716
2023-03-01T14:59:14.000Z,2716
2023-03-01T15:00:30.000Z,2704
2023-03-01T15:01:46.000Z,2700
2023-03-01T15:03:01.000Z,2684
2023-03-01T15:04:17.000Z,2672
2023-03-01T15:05:34.000Z,2656
2023-03-01T15:06:50.000Z,2648
2023-03-01T15:08:06.000Z,2644
2023-03-01T15:09:22.663Z,2632
2023-03-01T15:10:38.000Z,2624
2023-03-01T15:11:55.000Z,2612
2023-03-01T15:13:11.000Z,2604
2023-03-01T15:14:27.000Z,2596
2023-03-01T15:15:43.000Z,2588
2023-03-01T15:16:59.000Z,2572
2023-03-01T15:18:16.000Z,2560
2023-03-01T15:19:31.000Z,2544
2023-03-01T15:20:47.000Z,2528
2023-03-01T15:22:03.614Z,2516
2023-03-01T15:23:19.000Z,2500
2023-03-01T15:24:36.000Z,2476
2023-03-01T15:25:52.000Z,2460
2023-03-01T15:27:08.000Z,2436
2023-03-01T15:28:24.000Z,2424
2023-03-01T15:29:40.000Z,2408
2023-03-01T15:30:57.000Z,2392
2023-03-01T15:32:13.169Z,2368
2023-03-01T15:33:29.000Z,2352
2023-03-01T15:34:45.000Z,2328
2023-03-01T15:36:00.000Z,2304
2023-03-01T15:37:16.000Z,2280
2023-03-01T15:38:33.000Z,2256
2023-03-01T15:39:49.000Z,2236
2023-03-01T15:41:05.000Z,2216
2023-03-01T15:42:21.000Z,2192
2023-03-01T15:43:37.000Z,2172
2023-03-01T15:44:54.000Z,2144
2023-03-01T15:46:10.000Z,2120
2023-03-01T15:47:26.501Z,2096
2023-03-01T15:48:42.000Z,2072
2023-03-01T15:49:58.000Z,2048
2023-03-01T15:51:15.000Z,2024
2023-03-01T15:52:30.000Z,2004
2023-03-01T15:53:46.000Z,1988
2023-03-01T15:55:02.000Z,1960
2023-03-01T15:56:18.000Z,1932
2023-03-01T15:57:35.000Z,1904
2023-03-01T15:58:51.000Z,1872
2023-03-01T16:00:07.464Z,1844
2023-03-01T16:01:23.656Z,1816
2023-03-01T16:02:39.000Z,1788
2023-03-01T16:03:56.000Z,1756
2023-03-01T16:05:12.000Z,1720
2023-03-01T16:06:28.000Z,1696
2023-03-01T16:07:44.000Z,1668
2023-03-01T16:08:59.000Z,1640
2023-03-01T16:10:16.000Z,1612
2023-03-01T16:11:32.000Z,1584
2023-03-01T16:12:48.000Z,1552
2023-03-01T16:14:04.000Z,1520
2023-03-01T16:15:20.000Z,1492
2023-03-01T16:16:37.000Z,1460
2023-03-01T16:17:53.000Z,1432
2023-03-01T16:19:09.000Z,1396
2023-03-01T16:20:25.000Z,1364
2023-03-01T16:21:41.000Z,1332
2023-03-01T16:22:57.000Z,1304
2023-03-01T16:24:14.000Z,1268
2023-03-01T16:25:29.362Z,1236
2023-03-01T16:26:45.000Z,1208
2023-03-01T16:28:01.000Z,1172
2023-03-01T16:29:17.000Z,1140
2023-03-01T16:30:34.000Z,1108
2023-03-01T16:31:50.000Z,1076
2023-03-01T16:33:06.000Z,1048
2023-03-01T16:34:22.000Z,1012
2023-03-01T16:35:38.000Z,984
2023-03-01T16:36:55.099Z,952
2023-03-01T16:38:11.000Z,920
2023-03-01T16:39:27.000Z,888
2023-03-01T16:40:43.000Z,856
2023-03-01T16:41:58.000Z,824
2023-03-01T16:43:15.000Z,792
2023-03-01T16:44:31.000Z,756
2023-03-01T16:45:47.000Z,720
2023-03-01T16:47:03.000Z,684
2023-03-01T16:48:19.000Z,652
2023-03-01T16:49:36.000Z,620
2023-03-01T16:50:52.000Z,584
2023-03-01T16:52:08.000Z,548
2023-03-01T16:53:24.000Z,512
2023-03-01T16:54:40.000Z,476
2023-03-01T16:55:57.000Z,444
2023-03-01T16:57:13.000Z,408
2023-03-01T16:58:28.000Z,380
2023-03-01T16:59:44.000Z,348
2023-03-01T17:01:00.000Z,316
2023-03-01T17:02:17.000Z,288
2023-03-01T17:03:33.204Z,256
2023-03-01T17:04:49.000Z,232
2023-03-01T17:06:05.000Z,204
2023-03-01T17:07:21.000Z,184
2023-03-01T17:08:38.000Z,160
2023-03-01T17:09:54.159Z,136
2023-03-01T17:11:10.000Z,120
2023-03-01T17:12:26.000Z,104
2023-03-01T17:13:42.750Z,88
2023-03-01T17:14:57.000Z,72
2023-03-01T17:16:14.152Z,60
2023-03-01T17:17:30.000Z,52
2023-03-01T17:18:46.000Z,44
2023-03-01T17:20:02.000Z,36
2023-03-01T17:21:18.000Z,28
2023-03-01T17:22:35.000Z,24
2023-03-01T17:23:51.000Z,20
2023-03-01T17:25:07.000Z,12